Time;durP1;ratioP1;P1;durP2;ratioP2;P2;SDS_P1;SDS_P2;PMS_P1;PMS_P2;Temp;Humidity;BMP_temperature;BMP_pressure;BME280_temperature;BME280_humidity;BME280_pressure;Samples;Min_cycle;Max_cycle;Signal;HPM_P1;HPM_P2
2023/11/12 00:00:07;;;;;;;1.58;1.55;;;5.80;99.90;;;;;;4960220;28;20208;-83
2023/11/12 00:02:37;;;;;;;0.70;0.70;;;5.80;99.90;;;;;;4962827;28;20240;-84
2023/11/12 00:05:05;;;;;;;1.13;1.13;;;5.80;99.90;;;;;;4962617;28;20235;-84
2023/11/12 00:07:32;;;;;;;1.55;1.48;;;5.80;99.90;;;;;;4951603;29;20215;-86
2023/11/12 00:09:59;;;;;;;0.50;0.50;;;5.80;99.90;;;;;;4948143;29;20311;-86
2023/11/12 00:12:28;;;;;;;1.73;1.63;;;5.80;99.90;;;;;;4946205;29;20200;-84
2023/11/12 00:14:55;;;;;;;1.90;1.70;;;5.70;99.90;;;;;;4945369;29;20211;-84
2023/11/12 00:17:25;;;;;;;2.75;2.65;;;5.80;99.90;;;;;;4948664;29;20223;-84
2023/11/12 00:19:52;;;;;;;1.02;1.02;;;5.80;99.90;;;;;;4948876;29;20219;-87
2023/11/12 00:22:21;;;;;;;1.05;0.95;;;5.80;99.90;;;;;;4944768;29;20219;-85
2023/11/12 00:24:47;;;;;;;2.00;1.90;;;5.80;99.90;;;;;;4945927;29;20208;-82
2023/11/12 00:27:15;;;;;;;1.10;1.00;;;5.80;99.90;;;;;;4945254;29;20268;-85
2023/11/12 00:29:41;;;;;;;1.88;1.77;;;5.80;99.90;;;;;;4944024;29;20227;-85
2023/11/12 00:32:09;;;;;;;5.65;2.67;;;5.70;99.90;;;;;;4943592;29;20235;-83
2023/11/12 00:34:36;;;;;;;3.47;3.17;;;5.80;99.90;;;;;;4944091;29;20204;-87
2023/11/12 00:37:04;;;;;;;2.17;2.08;;;5.90;99.90;;;;;;4946172;29;20268;-86
2023/11/12 00:39:31;;;;;;;1.80;1.70;;;5.90;99.90;;;;;;4949686;29;20299;-85
2023/11/12 00:42:00;;;;;;;1.80;1.73;;;5.80;99.90;;;;;;4949455;29;20287;-86
2023/11/12 00:44:27;;;;;;;4.05;3.47;;;5.90;99.90;;;;;;4948335;29;20219;-86
2023/11/12 00:46:54;;;;;;;1.80;1.45;;;5.80;99.90;;;;;;4960988;29;20341;-85
2023/11/12 00:49:22;;;;;;;0.63;0.63;;;5.90;99.90;;;;;;4959732;28;20204;-86
2023/11/12 00:51:49;;;;;;;3.58;3.30;;;5.80;99.90;;;;;;4945514;29;20227;-84
2023/11/12 00:54:16;;;;;;;3.15;3.00;;;5.80;99.90;;;;;;4948754;29;20307;-85
2023/11/12 00:56:44;;;;;;;2.85;2.67;;;5.80;99.90;;;;;;4953531;29;20260;-85
2023/11/12 00:59:11;;;;;;;4.05;3.55;;;5.80;99.90;;;;;;4946928;29;20560;-88
2023/11/12 01:01:38;;;;;;;1.17;1.08;;;5.80;99.90;;;;;;4946233;29;20204;-83
2023/11/12 01:04:06;;;;;;;1.90;1.80;;;5.80;99.90;;;;;;4947041;29;20269;-82
2023/11/12 01:06:33;;;;;;;0.55;0.55;;;5.70;99.90;;;;;;4958199;28;20196;-86
2023/11/12 01:09:00;;;;;;;3.20;2.35;;;5.80;99.90;;;;;;4958503;28;20213;-85
2023/11/12 01:11:28;;;;;;;2.63;2.53;;;5.90;99.90;;;;;;4953333;28;20292;-86
2023/11/12 01:13:55;;;;;;;7.72;2.78;;;5.80;99.90;;;;;;4966499;28;20203;-87
2023/11/12 01:16:22;;;;;;;1.05;0.93;;;5.80;99.90;;;;;;4965010;28;20215;-87
2023/11/12 01:18:49;;;;;;;3.20;2.78;;;5.90;99.90;;;;;;4963592;29;20205;-84
2023/11/12 01:21:19;;;;;;;2.33;2.22;;;5.80;99.90;;;;;;4967097;28;20207;-85
2023/11/12 01:23:46;;;;;;;2.50;2.33;;;6.00;99.90;;;;;;4958160;28;20212;-87
2023/11/12 01:26:13;;;;;;;1.60;1.52;;;5.80;99.90;;;;;;4947646;29;20267;-87
2023/11/12 01:28:40;;;;;;;1.95;1.85;;;5.90;99.90;;;;;;4957297;29;20240;-85
2023/11/12 01:31:07;;;;;;;2.13;2.03;;;5.80;99.90;;;;;;4949540;29;20308;-84
2023/11/12 01:33:34;;;;;;;3.25;3.05;;;5.80;99.90;;;;;;4954461;29;20204;-86
2023/11/12 01:36:01;;;;;;;0.55;0.55;;;5.80;99.90;;;;;;4949682;29;20212;-85
2023/11/12 01:38:30;;;;;;;0.90;0.80;;;5.80;99.90;;;;;;4948613;29;20268;-85
2023/11/12 01:41:02;;;;;;;4.07;3.78;;;5.90;99.90;;;;;;4947920;29;20212;-86
2023/11/12 01:43:30;;;;;;;1.60;1.35;;;5.80;99.90;;;;;;4948477;29;20251;-85
2023/11/12 01:46:00;;;;;;;3.47;2.90;;;5.80;99.90;;;;;;4947413;29;20228;-86
2023/11/12 01:48:30;;;;;;;3.00;1.77;;;5.80;99.90;;;;;;4954196;29;20222;-83
2023/11/12 01:50:59;;;;;;;1.45;1.35;;;5.80;99.90;;;;;;4947155;29;20231;-87
2023/11/12 01:53:27;;;;;;;1.65;1.20;;;5.80;99.90;;;;;;4947573;29;20232;-88
2023/11/12 01:55:55;;;;;;;1.60;1.50;;;5.80;99.90;;;;;;4949414;29;20275;-85
2023/11/12 01:58:23;;;;;;;1.70;1.60;;;5.80;99.90;;;;;;4950089;29;20255;-86
2023/11/12 02:00:52;;;;;;;3.95;3.20;;;5.80;99.90;;;;;;4963389;28;20296;-85
2023/11/12 02:03:20;;;;;;;0.70;0.70;;;5.80;99.90;;;;;;4951520;29;20308;-86
2023/11/12 02:05:47;;;;;;;0.93;0.93;;;5.90;99.90;;;;;;4949831;29;20212;-86
2023/11/12 02:08:15;;;;;;;1.83;1.73;;;5.90;99.90;;;;;;4971890;28;20580;-88
2023/11/12 02:10:48;;;;;;;2.42;2.22;;;5.80;99.90;;;;;;4970100;28;20284;-89
2023/11/12 02:13:17;;;;;;;1.73;1.63;;;5.80;99.90;;;;;;4950429;29;20189;-89
2023/11/12 02:15:50;;;;;;;3.72;1.45;;;5.80;99.90;;;;;;4948654;29;20212;-87
2023/11/12 02:18:17;;;;;;;2.05;1.95;;;5.90;99.90;;;;;;4945047;29;20204;-87
2023/11/12 02:20:47;;;;;;;1.73;1.63;;;5.80;99.90;;;;;;4948118;28;20208;-89
2023/11/12 02:23:15;;;;;;;0.88;0.88;;;5.80;99.90;;;;;;4947405;29;20591;-88
2023/11/12 02:25:44;;;;;;;2.92;2.72;;;5.70;99.90;;;;;;4947356;29;20216;-88
2023/11/12 02:28:15;;;;;;;0.60;0.60;;;5.70;99.90;;;;;;4947594;29;20232;-87
2023/11/12 02:30:43;;;;;;;1.85;1.20;;;5.70;99.90;;;;;;4939506;29;20244;-85
2023/11/12 02:33:10;;;;;;;1.05;1.05;;;5.50;99.90;;;;;;4946941;29;20200;-86
2023/11/12 02:35:42;;;;;;;0.70;0.70;;;5.60;99.90;;;;;;4946671;29;20508;-84
2023/11/12 02:38:12;;;;;;;1.55;1.23;;;5.60;99.90;;;;;;4946039;29;20200;-87
2023/11/12 02:40:39;;;;;;;1.48;1.27;;;5.50;99.90;;;;;;4947258;29;20188;-85
2023/11/12 02:43:06;;;;;;;2.53;2.20;;;5.50;99.90;;;;;;4945521;29;20263;-84
2023/11/12 02:45:34;;;;;;;2.25;1.60;;;5.40;99.90;;;;;;4944938;29;20752;-85
2023/11/12 02:48:01;;;;;;;0.82;0.82;;;5.40;99.90;;;;;;4947023;29;20276;-84
2023/11/12 02:50:33;;;;;;;2.95;2.67;;;5.30;99.90;;;;;;4946286;29;20268;-86
2023/11/12 02:53:01;;;;;;;1.33;1.33;;;5.30;99.90;;;;;;4952517;29;20255;-85
2023/11/12 02:55:32;;;;;;;2.05;1.63;;;5.30;99.90;;;;;;4946009;29;20524;-84
2023/11/12 02:58:00;;;;;;;1.65;1.55;;;5.30;99.90;;;;;;4940084;29;20240;-85
2023/11/12 03:00:28;;;;;;;2.38;2.28;;;5.30;99.90;;;;;;4949622;29;20240;-86
2023/11/12 03:02:57;;;;;;;3.47;3.22;;;5.40;99.90;;;;;;4946344;29;20304;-84
2023/11/12 03:05:25;;;;;;;6.20;2.80;;;5.40;99.90;;;;;;4952950;29;20394;-84
2023/11/12 03:07:52;;;;;;;3.45;3.28;;;5.40;99.90;;;;;;4944465;29;20450;-85
2023/11/12 03:10:20;;;;;;;2.20;2.05;;;5.30;99.90;;;;;;4952547;29;20215;-84
2023/11/12 03:12:49;;;;;;;1.27;1.15;;;5.30;99.90;;;;;;4945715;29;20257;-84
2023/11/12 03:15:16;;;;;;;1.52;1.42;;;5.50;99.90;;;;;;4943020;29;20243;-84
2023/11/12 03:17:45;;;;;;;0.93;0.93;;;5.30;99.90;;;;;;4943947;29;20530;-85
2023/11/12 03:20:14;;;;;;;2.80;2.45;;;5.30;99.90;;;;;;4942491;29;20410;-85
2023/11/12 03:22:41;;;;;;;13.25;5.05;;;5.20;99.90;;;;;;4942846;29;20212;-85
2023/11/12 03:25:10;;;;;;;1.25;1.25;;;5.40;99.90;;;;;;4942269;29;20271;-86
2023/11/12 03:27:38;;;;;;;1.70;1.60;;;5.10;99.90;;;;;;4943916;29;20210;-86
2023/11/12 03:30:08;;;;;;;1.95;1.85;;;5.10;99.90;;;;;;4943538;29;20236;-85
2023/11/12 03:32:35;;;;;;;1.27;1.27;;;5.20;99.90;;;;;;4943548;29;20263;-85
2023/11/12 03:35:02;;;;;;;1.48;1.38;;;5.20;99.90;;;;;;4962019;28;20302;-85
2023/11/12 03:37:29;;;;;;;1.23;1.23;;;5.20;99.90;;;;;;4945634;29;20216;-86
2023/11/12 03:39:56;;;;;;;4.40;4.10;;;5.10;99.90;;;;;;4947524;29;20264;-85
2023/11/12 03:42:24;;;;;;;3.92;1.60;;;5.30;99.90;;;;;;4943438;29;20401;-85
2023/11/12 03:44:51;;;;;;;1.15;1.15;;;5.30;99.90;;;;;;4928068;29;20227;-85
2023/11/12 03:47:19;;;;;;;0.80;0.80;;;5.30;99.90;;;;;;4943659;29;20504;-83
2023/11/12 03:49:46;;;;;;;0.70;0.70;;;5.30;99.90;;;;;;4947427;29;20279;-84
2023/11/12 03:52:13;;;;;;;1.95;1.85;;;5.30;99.90;;;;;;4945852;28;20295;-84
2023/11/12 03:54:40;;;;;;;2.42;2.20;;;5.30;99.90;;;;;;4945767;29;20208;-86
2023/11/12 03:57:08;;;;;;;0.50;0.50;;;5.20;99.90;;;;;;4945524;29;20793;-85
2023/11/12 03:59:36;;;;;;;1.33;0.88;;;5.30;99.90;;;;;;4942894;29;20216;-85
2023/11/12 04:02:04;;;;;;;2.55;2.38;;;5.30;99.90;;;;;;4942337;29;20247;-85
2023/11/12 04:04:32;;;;;;;1.50;1.40;;;5.30;99.90;;;;;;4942979;29;20208;-84
2023/11/12 04:06:59;;;;;;;1.33;1.33;;;5.30;99.90;;;;;;4943280;29;20219;-87
2023/11/12 04:09:27;;;;;;;2.35;1.95;;;5.40;99.90;;;;;;4942506;29;20249;-85
2023/11/12 04:11:54;;;;;;;1.95;1.85;;;5.20;99.90;;;;;;4942540;29;20255;-84
2023/11/12 04:14:21;;;;;;;2.33;2.22;;;5.10;99.90;;;;;;4954062;29;20413;-86
2023/11/12 04:16:48;;;;;;;1.73;1.60;;;5.30;99.90;;;;;;4944437;29;20212;-87
2023/11/12 04:19:15;;;;;;;1.10;1.10;;;5.30;99.90;;;;;;4958197;29;20243;-87
2023/11/12 04:21:46;;;;;;;2.88;2.67;;;5.30;99.90;;;;;;4942845;29;20520;-85
2023/11/12 04:24:13;;;;;;;2.35;1.77;;;5.30;99.90;;;;;;4942996;29;20188;-85
2023/11/12 04:26:40;;;;;;;0.63;0.63;;;5.30;99.90;;;;;;4941952;29;20395;-86
2023/11/12 04:29:07;;;;;;;3.70;2.53;;;5.40;99.90;;;;;;4942714;29;20279;-86
2023/11/12 04:31:35;;;;;;;1.52;1.48;;;5.30;99.90;;;;;;4942807;29;20721;-84
2023/11/12 04:34:03;;;;;;;0.50;0.50;;;5.30;99.90;;;;;;4941944;29;20212;-85
2023/11/12 04:36:35;;;;;;;2.28;2.17;;;5.30;99.90;;;;;;4943630;29;20212;-86
2023/11/12 04:39:03;;;;;;;0.60;0.60;;;5.40;99.90;;;;;;4943775;29;20196;-86
2023/11/12 04:41:30;;;;;;;0.90;0.90;;;5.40;99.90;;;;;;4947793;29;20279;-86
2023/11/12 04:43:59;;;;;;;1.30;1.20;;;5.40;99.90;;;;;;4948192;29;20204;-86
2023/11/12 04:46:26;;;;;;;1.88;1.80;;;5.40;99.90;;;;;;4952212;29;20239;-85
2023/11/12 04:48:53;;;;;;;1.35;1.27;;;5.40;99.90;;;;;;4949747;29;20212;-84
2023/11/12 04:51:21;;;;;;;2.97;2.28;;;5.40;99.90;;;;;;4956636;29;20238;-84
2023/11/12 04:53:48;;;;;;;2.00;1.90;;;5.40;99.90;;;;;;4946669;29;20216;-85
2023/11/12 04:56:16;;;;;;;4.00;2.10;;;5.30;99.90;;;;;;4952946;29;20228;-83
2023/11/12 04:58:43;;;;;;;1.30;1.30;;;5.30;99.90;;;;;;4960600;28;20250;-85
2023/11/12 05:01:11;;;;;;;2.13;1.92;;;5.10;99.90;;;;;;4963586;29;20208;-82
2023/11/12 05:03:38;;;;;;;1.35;1.25;;;5.00;99.90;;;;;;4963518;29;20204;-85
2023/11/12 05:06:07;;;;;;;1.83;1.73;;;4.90;99.90;;;;;;4945436;29;20208;-83
2023/11/12 05:08:35;;;;;;;0.60;0.60;;;4.80;99.90;;;;;;4961530;29;20200;-83
2023/11/12 05:11:02;;;;;;;2.08;1.35;;;4.70;99.90;;;;;;4982071;28;20267;-83
2023/11/12 05:13:30;;;;;;;4.00;1.83;;;4.60;99.90;;;;;;4970652;28;20215;-85
2023/11/12 05:15:57;;;;;;;2.80;2.25;;;4.60;99.90;;;;;;4971069;28;20200;-85
2023/11/12 05:18:25;;;;;;;0.70;0.70;;;4.60;99.90;;;;;;4969520;28;20214;-85
2023/11/12 05:20:51;;;;;;;1.35;1.25;;;4.70;99.90;;;;;;4961071;28;20207;-84
2023/11/12 05:23:19;;;;;;;3.80;2.45;;;4.70;99.90;;;;;;4969510;28;20259;-86
2023/11/12 05:25:45;;;;;;;1.13;1.02;;;4.70;99.90;;;;;;4960182;28;20220;-82
2023/11/12 05:28:13;;;;;;;5.65;2.58;;;4.80;99.90;;;;;;4953512;28;20222;-85
2023/11/12 05:30:40;;;;;;;1.67;0.70;;;4.90;99.90;;;;;;4949969;29;20200;-84
2023/11/12 05:33:07;;;;;;;0.90;0.90;;;4.90;99.90;;;;;;4947136;29;20497;-84
2023/11/12 05:35:34;;;;;;;1.25;1.25;;;4.90;99.90;;;;;;4957600;29;20204;-83
2023/11/12 05:38:02;;;;;;;1.00;1.00;;;4.90;99.90;;;;;;4975823;29;20239;-84
2023/11/12 05:40:29;;;;;;;1.02;1.02;;;5.00;99.90;;;;;;4956529;29;20232;-83
2023/11/12 05:42:56;;;;;;;2.70;2.20;;;5.00;99.90;;;;;;4973025;28;20255;-83
2023/11/12 05:45:23;;;;;;;0.90;0.90;;;5.10;99.90;;;;;;4970391;28;20218;-84
2023/11/12 05:47:51;;;;;;;0.50;0.50;;;5.10;99.90;;;;;;4969449;28;20188;-86
2023/11/12 05:50:18;;;;;;;1.75;1.55;;;5.10;99.90;;;;;;4959307;28;20188;-86
2023/11/12 05:52:45;;;;;;;3.15;1.45;;;5.10;99.90;;;;;;4947986;28;20255;-85
2023/11/12 05:55:14;;;;;;;2.22;2.13;;;5.10;99.90;;;;;;4945283;29;20214;-84
2023/11/12 05:57:41;;;;;;;1.60;1.50;;;5.10;99.90;;;;;;4946029;29;20212;-84
2023/11/12 06:00:12;;;;;;;1.63;1.58;;;5.10;99.90;;;;;;4948391;29;20219;-84
2023/11/12 06:02:39;;;;;;;5.32;2.67;;;5.20;99.90;;;;;;4959089;29;20208;-84
2023/11/12 06:05:07;;;;;;;1.75;1.65;;;5.10;99.90;;;;;;4948487;29;20255;-83
2023/11/12 06:07:34;;;;;;;3.20;2.92;;;5.00;99.90;;;;;;4954363;29;20216;-82
2023/11/12 06:10:01;;;;;;;0.60;0.60;;;5.00;99.90;;;;;;4944590;29;20512;-86
2023/11/12 06:12:30;;;;;;;2.28;2.15;;;5.00;99.90;;;;;;4945129;29;20509;-85
2023/11/12 06:14:57;;;;;;;1.10;0.80;;;5.00;99.90;;;;;;4948299;29;20197;-87
2023/11/12 06:17:27;;;;;;;3.10;2.80;;;5.00;99.90;;;;;;4945157;29;20212;-86
2023/11/12 06:19:54;;;;;;;6.63;3.10;;;5.00;99.90;;;;;;4945340;29;20193;-85
2023/11/12 06:22:21;;;;;;;2.58;2.45;;;5.10;99.90;;;;;;4944053;29;20230;-86
2023/11/12 06:24:48;;;;;;;2.05;1.95;;;5.30;99.90;;;;;;4945603;29;20331;-84
2023/11/12 06:27:16;;;;;;;1.45;1.35;;;5.10;99.90;;;;;;4944971;29;20227;-86
2023/11/12 06:29:43;;;;;;;1.98;1.88;;;5.20;99.90;;;;;;4945215;29;20216;-85
2023/11/12 06:32:11;;;;;;;0.93;0.93;;;5.20;99.90;;;;;;4951538;29;20248;-85
2023/11/12 06:34:38;;;;;;;2.38;2.17;;;5.30;99.90;;;;;;4944868;29;20219;-86
2023/11/12 06:37:05;;;;;;;1.38;1.10;;;5.30;99.90;;;;;;4944795;29;20208;-84
2023/11/12 06:39:33;;;;;;;2.47;2.38;;;5.30;99.90;;;;;;4945055;29;20267;-87
2023/11/12 06:42:00;;;;;;;0.80;0.80;;;5.30;99.90;;;;;;4943849;29;20247;-85
2023/11/12 06:44:27;;;;;;;1.80;1.70;;;5.40;99.90;;;;;;4945341;29;20212;-87
2023/11/12 06:46:54;;;;;;;1.40;1.30;;;5.40;99.90;;;;;;4946947;29;20227;-86
2023/11/12 06:49:21;;;;;;;1.58;1.48;;;5.40;99.90;;;;;;4945456;29;20513;-85
2023/11/12 06:51:48;;;;;;;1.50;1.30;;;5.40;99.90;;;;;;4946511;29;20242;-88
2023/11/12 06:54:15;;;;;;;0.75;0.75;;;5.50;99.90;;;;;;4947778;29;20212;-85
2023/11/12 06:56:42;;;;;;;2.83;2.63;;;5.50;99.90;;;;;;4947661;29;20405;-86
2023/11/12 06:59:09;;;;;;;0.90;0.90;;;5.60;99.90;;;;;;4946474;29;20200;-85
2023/11/12 07:01:37;;;;;;;0.75;0.75;;;5.60;99.90;;;;;;4939560;29;20578;-86
2023/11/12 07:04:04;;;;;;;1.70;1.60;;;5.50;99.90;;;;;;4942895;29;20252;-85
2023/11/12 07:06:32;;;;;;;0.40;0.40;;;5.50;99.90;;;;;;4943004;29;20228;-85
2023/11/12 07:08:59;;;;;;;6.32;3.13;;;5.60;99.90;;;;;;4945091;29;20546;-86
2023/11/12 07:11:26;;;;;;;2.60;2.40;;;5.60;99.90;;;;;;4945991;29;20208;-84
2023/11/12 07:13:53;;;;;;;1.50;1.40;;;5.60;99.90;;;;;;4952120;29;20215;-85
2023/11/12 07:16:20;;;;;;;0.93;0.93;;;5.50;99.90;;;;;;4942494;29;20284;-84
2023/11/12 07:18:50;;;;;;;0.77;0.77;;;5.70;99.90;;;;;;4942868;29;20203;-83
2023/11/12 07:21:28;;;;;;;1.85;1.70;;;5.70;99.90;;;;;;4945564;29;20288;-84
2023/11/12 07:23:56;;;;;;;1.33;1.23;;;5.70;99.90;;;;;;4944678;29;20449;-84
2023/11/12 07:26:24;;;;;;;0.70;0.70;;;5.70;99.90;;;;;;4942522;28;20212;-86
2023/11/12 07:28:51;;;;;;;2.08;1.95;;;5.80;99.90;;;;;;4940209;29;20244;-85
2023/11/12 07:31:22;;;;;;;1.70;1.60;;;5.80;99.90;;;;;;4947230;29;20207;-84
2023/11/12 07:33:49;;;;;;;0.45;0.45;;;6.00;99.90;;;;;;4942322;29;20234;-84
2023/11/12 07:36:16;;;;;;;0.93;0.93;;;5.90;99.90;;;;;;4935275;29;20522;-86
2023/11/12 07:38:44;;;;;;;2.08;1.98;;;5.90;99.90;;;;;;4941837;29;20561;-86
2023/11/12 07:41:12;;;;;;;0.55;0.52;;;5.90;99.90;;;;;;4930888;29;20278;-85
2023/11/12 07:43:39;;;;;;;1.05;1.05;;;6.00;99.90;;;;;;4942871;29;20224;-88
2023/11/12 07:46:06;;;;;;;1.85;1.75;;;6.00;99.90;;;;;;4945236;29;20215;-86
2023/11/12 07:48:36;;;;;;;1.02;1.02;;;6.00;99.90;;;;;;4944496;29;20224;-86
2023/11/12 07:51:07;;;;;;;1.13;1.08;;;6.00;99.90;;;;;;4937410;29;20205;-85
2023/11/12 07:53:35;;;;;;;2.15;2.05;;;6.10;99.90;;;;;;4940942;29;20233;-84
2023/11/12 07:56:06;;;;;;;1.23;1.13;;;6.10;99.90;;;;;;4944751;29;20224;-84
2023/11/12 07:58:35;;;;;;;1.73;1.63;;;6.10;99.90;;;;;;4941585;29;20477;-84
2023/11/12 08:01:03;;;;;;;1.70;1.65;;;6.10;99.90;;;;;;4935648;29;20271;-85
2023/11/12 08:03:32;;;;;;;1.85;1.75;;;6.10;99.90;;;;;;4946159;29;20248;-86
2023/11/12 08:05:59;;;;;;;0.50;0.50;;;6.10;99.90;;;;;;4949559;29;20212;-85
2023/11/12 08:08:27;;;;;;;1.27;1.27;;;6.20;99.90;;;;;;4945686;29;20204;-86
2023/11/12 08:10:59;;;;;;;0.75;0.75;;;6.20;99.90;;;;;;4962915;28;20211;-86
2023/11/12 08:13:27;;;;;;;1.15;1.05;;;6.20;99.90;;;;;;4948261;29;20670;-88
2023/11/12 08:15:54;;;;;;;0.65;0.65;;;6.20;99.90;;;;;;4932325;29;20299;-85
2023/11/12 08:18:21;;;;;;;0.95;0.95;;;6.20;99.90;;;;;;4943447;29;20197;-84
2023/11/12 08:20:48;;;;;;;1.60;1.50;;;6.40;99.90;;;;;;4936639;29;20208;-83
2023/11/12 08:23:17;;;;;;;0.98;0.98;;;6.40;99.90;;;;;;4943841;29;20212;-85
2023/11/12 08:25:44;;;;;;;0.63;0.63;;;6.40;99.90;;;;;;4949491;29;20580;-84
2023/11/12 08:28:12;;;;;;;0.73;0.73;;;6.40;99.90;;;;;;4949272;29;20242;-84
2023/11/12 08:30:39;;;;;;;0.50;0.50;;;6.30;99.90;;;;;;4951749;29;20216;-86
2023/11/12 08:33:09;;;;;;;0.50;0.50;;;6.40;99.90;;;;;;4949498;29;20270;-85
2023/11/12 08:35:36;;;;;;;1.20;1.20;;;6.50;99.90;;;;;;4945943;29;20461;-82
2023/11/12 08:38:03;;;;;;;1.38;1.38;;;6.50;99.90;;;;;;4941199;29;20214;-81
2023/11/12 08:40:30;;;;;;;1.02;0.75;;;6.40;99.90;;;;;;4944745;29;20212;-81
2023/11/12 08:42:57;;;;;;;1.58;1.02;;;6.50;99.90;;;;;;4943194;29;20291;-82
2023/11/12 08:45:24;;;;;;;2.80;2.65;;;6.40;99.90;;;;;;4942995;29;20284;-82
2023/11/12 08:47:51;;;;;;;0.40;0.40;;;6.50;99.90;;;;;;4939945;29;20216;-80
2023/11/12 08:50:19;;;;;;;3.33;3.00;;;6.60;99.90;;;;;;4943980;29;20267;-81
2023/11/12 08:52:46;;;;;;;0.70;0.70;;;6.60;99.90;;;;;;4943682;29;20243;-80
2023/11/12 08:55:13;;;;;;;0.70;0.70;;;6.60;99.90;;;;;;4943684;29;20202;-79
2023/11/12 08:57:41;;;;;;;2.50;1.77;;;6.60;99.90;;;;;;4944152;29;20219;-79
2023/11/12 09:00:09;;;;;;;0.85;0.85;;;6.70;99.90;;;;;;4944346;29;20247;-82
2023/11/12 09:02:36;;;;;;;2.15;1.67;;;6.70;99.90;;;;;;4942226;29;20279;-81
2023/11/12 09:05:04;;;;;;;0.82;0.82;;;6.70;99.90;;;;;;4942903;29;20211;-80
2023/11/12 09:07:31;;;;;;;0.70;0.70;;;6.80;99.90;;;;;;4942743;29;20220;-80
2023/11/12 09:09:58;;;;;;;0.50;0.50;;;6.90;99.90;;;;;;4944945;29;20275;-81
2023/11/12 09:12:25;;;;;;;0.93;0.93;;;6.90;99.90;;;;;;4945569;29;20228;-82
2023/11/12 09:14:53;;;;;;;1.60;1.52;;;7.00;99.90;;;;;;4946658;29;20477;-82
2023/11/12 09:17:20;;;;;;;0.80;0.80;;;7.10;99.90;;;;;;4940154;29;20543;-83
2023/11/12 09:19:50;;;;;;;2.70;2.50;;;7.10;99.90;;;;;;4945575;29;20212;-83
2023/11/12 09:22:17;;;;;;;0.90;0.90;;;7.20;99.90;;;;;;4953207;29;20219;-83
2023/11/12 09:24:45;;;;;;;0.85;0.85;;;7.30;99.90;;;;;;4944919;29;20235;-84
2023/11/12 09:27:30;;;;;;;2.00;1.90;;;7.40;99.90;;;;;;4945217;29;20208;-86
2023/11/12 09:29:59;;;;;;;0.50;0.50;;;7.30;99.90;;;;;;4942469;29;20504;-84
2023/11/12 09:32:26;;;;;;;1.65;1.55;;;7.60;99.90;;;;;;4946220;29;20263;-84
2023/11/12 09:34:53;;;;;;;1.15;1.15;;;7.40;99.90;;;;;;4946732;29;20460;-85
2023/11/12 09:37:20;;;;;;;2.10;2.00;;;7.50;99.90;;;;;;4946323;29;20242;-85
2023/11/12 09:39:49;;;;;;;1.23;1.17;;;7.70;99.90;;;;;;4943094;29;20219;-84
2023/11/12 09:42:22;;;;;;;0.50;0.50;;;7.70;99.90;;;;;;4946553;29;20246;-87
2023/11/12 09:44:52;;;;;;;0.60;0.60;;;7.70;99.90;;;;;;4943029;29;20208;-88
2023/11/12 09:47:42;;;;;;;0.65;0.65;;;7.70;99.90;;;;;;4939094;29;20227;-86
2023/11/12 09:50:12;;;;;;;0.90;0.90;;;7.80;99.90;;;;;;4948774;29;20204;-86
2023/11/12 09:52:39;;;;;;;1.35;1.35;;;7.80;99.90;;;;;;4947451;29;20491;-86
2023/11/12 09:55:10;;;;;;;0.68;0.68;;;7.90;99.90;;;;;;4947674;29;20200;-85
2023/11/12 09:57:38;;;;;;;0.70;0.70;;;7.90;99.90;;;;;;4949067;29;20219;-86
2023/11/12 10:00:07;;;;;;;0.85;0.85;;;7.80;99.90;;;;;;4955479;29;20280;-85
2023/11/12 10:02:35;;;;;;;1.23;0.95;;;8.00;99.90;;;;;;4950667;29;20383;-84
2023/11/12 10:05:07;;;;;;;0.90;0.90;;;7.90;99.90;;;;;;4950998;28;20212;-88
2023/11/12 10:10:30;;;;;;;0.82;0.82;;;7.70;99.90;;;;;;4923605;28;20232;-85
2023/11/12 10:12:58;;;;;;;0.68;0.68;;;7.60;99.90;;;;;;4928595;29;20331;-88
2023/11/12 10:15:27;;;;;;;0.40;0.40;;;7.70;99.90;;;;;;4928254;29;20218;-85
2023/11/12 10:17:56;;;;;;;0.55;0.55;;;7.80;99.90;;;;;;4925554;28;20202;-87
2023/11/12 10:20:35;;;;;;;0.98;0.98;;;7.80;99.90;;;;;;4937186;28;20185;-88
2023/11/12 10:23:03;;;;;;;0.57;0.57;;;8.10;99.90;;;;;;4934708;28;20192;-85
2023/11/12 10:25:44;;;;;;;0.55;0.55;;;8.00;99.90;;;;;;4941686;28;20269;-86
2023/11/12 10:28:12;;;;;;;1.23;1.17;;;8.20;99.90;;;;;;4930353;28;20272;-87
2023/11/12 10:30:43;;;;;;;0.70;0.70;;;8.10;99.90;;;;;;4927994;29;20529;-85
2023/11/12 10:33:15;;;;;;;0.63;0.63;;;8.10;99.90;;;;;;4938813;29;20233;-83
2023/11/12 10:35:42;;;;;;;1.10;0.88;;;8.20;99.90;;;;;;4922507;29;20459;-84
2023/11/12 10:38:12;;;;;;;1.30;1.30;;;8.20;99.90;;;;;;4926527;29;20216;-87
2023/11/12 10:40:57;;;;;;;0.50;0.50;;;8.10;99.90;;;;;;4920717;29;20205;-85
2023/11/12 10:43:25;;;;;;;0.50;0.50;;;7.90;99.90;;;;;;4936677;29;20271;-86
2023/11/12 10:45:58;;;;;;;0.95;0.95;;;8.00;99.90;;;;;;4930487;29;20249;-88
2023/11/12 10:48:33;;;;;;;0.50;0.50;;;8.00;99.90;;;;;;4934236;28;20200;-87
2023/11/12 10:51:04;;;;;;;0.40;0.40;;;8.00;99.90;;;;;;4932471;28;20244;-83
2023/11/12 10:53:33;;;;;;;1.13;1.02;;;8.10;99.90;;;;;;4928116;28;20233;-86
2023/11/12 10:56:01;;;;;;;0.52;0.52;;;8.00;99.90;;;;;;4923834;29;20331;-86
2023/11/12 10:58:29;;;;;;;0.40;0.40;;;8.10;99.90;;;;;;4918077;29;20361;-85
2023/11/12 11:01:03;;;;;;;0.47;0.47;;;7.90;99.90;;;;;;4916162;29;20626;-86
2023/11/12 11:03:32;;;;;;;0.65;0.65;;;8.10;99.90;;;;;;4936454;29;20256;-85
2023/11/12 11:06:02;;;;;;;0.70;0.70;;;8.10;99.90;;;;;;4932334;29;20208;-86
2023/11/12 11:08:31;;;;;;;0.40;0.40;;;8.10;99.90;;;;;;4925221;29;20256;-86
2023/11/12 11:10:59;;;;;;;0.60;0.60;;;8.30;99.90;;;;;;4915874;29;20717;-88
2023/11/12 11:13:27;;;;;;;2.15;2.00;;;8.50;99.90;;;;;;4929618;29;20243;-87
2023/11/12 11:15:56;;;;;;;0.40;0.40;;;8.70;99.90;;;;;;4921382;29;20272;-86
2023/11/12 11:18:34;;;;;;;0.70;0.70;;;9.00;99.90;;;;;;4919179;29;20212;-86
2023/11/12 11:21:05;;;;;;;1.20;1.20;;;8.80;99.90;;;;;;4919754;29;20224;-89
2023/11/12 11:23:44;;;;;;;0.50;0.50;;;8.70;99.90;;;;;;4924838;29;20209;-87
2023/11/12 11:26:29;;;;;;;0.50;0.50;;;8.80;99.90;;;;;;4814395;29;2819925;-86
2023/11/12 11:29:05;;;;;;;0.40;0.40;;;8.80;99.90;;;;;;4905942;29;20209;-86
2023/11/12 11:31:36;;;;;;;1.00;0.98;;;8.50;99.90;;;;;;4909742;29;20272;-85
2023/11/12 11:34:05;;;;;;;0.50;0.50;;;8.60;99.90;;;;;;4910240;29;20234;-86
2023/11/12 11:36:33;;;;;;;2.83;2.25;;;8.70;99.90;;;;;;4916790;29;20210;-87
2023/11/12 11:39:25;;;;;;;0.50;0.50;;;8.60;99.90;;;;;;4910123;29;20379;-87
2023/11/12 11:41:56;;;;;;;1.70;1.60;;;8.40;99.90;;;;;;4909285;29;20194;-88
2023/11/12 11:44:40;;;;;;;0.50;0.50;;;8.30;99.90;;;;;;4918444;29;20193;-87
2023/11/12 11:47:16;;;;;;;0.70;0.70;;;8.40;99.90;;;;;;4910244;29;20237;-85
2023/11/12 11:49:45;;;;;;;1.67;1.63;;;8.70;99.90;;;;;;4911723;29;20185;-85
2023/11/12 11:52:25;;;;;;;0.40;0.40;;;8.70;99.90;;;;;;4909680;29;20222;-83
2023/11/12 11:54:57;;;;;;;0.98;0.98;;;8.60;99.90;;;;;;4912298;29;20264;-87
2023/11/12 11:57:25;;;;;;;5.22;1.17;;;8.70;99.90;;;;;;4901619;29;20280;-85
2023/11/12 11:59:57;;;;;;;0.60;0.60;;;8.80;99.90;;;;;;4901507;29;20251;-87
2023/11/12 12:02:24;;;;;;;0.60;0.60;;;8.60;99.90;;;;;;4904910;29;20253;-86
2023/11/12 12:04:59;;;;;;;4.03;1.50;;;8.60;99.90;;;;;;4907293;29;20318;-87
2023/11/12 12:07:31;;;;;;;0.88;0.88;;;8.50;99.90;;;;;;4905355;29;20205;-85
2023/11/12 12:09:59;;;;;;;0.60;0.60;;;8.60;99.90;;;;;;4905212;29;20259;-87
2023/11/12 12:12:28;;;;;;;0.50;0.50;;;8.40;99.90;;;;;;4905903;28;20269;-82
2023/11/12 12:14:55;;;;;;;1.77;1.70;;;8.30;99.90;;;;;;4906290;29;20281;-86
2023/11/12 12:17:23;;;;;;;1.02;1.02;;;8.10;99.90;;;;;;4905719;29;20205;-87
2023/11/12 12:19:55;;;;;;;0.50;0.50;;;8.20;99.90;;;;;;4910080;29;20249;-85
2023/11/12 12:22:24;;;;;;;2.95;2.83;;;8.20;99.90;;;;;;4911370;29;20196;-86
2023/11/12 12:24:59;;;;;;;0.65;0.65;;;8.20;99.90;;;;;;4908676;29;20206;-86
2023/11/12 12:27:26;;;;;;;0.90;0.90;;;8.30;99.90;;;;;;4916221;29;20717;-87
2023/11/12 12:29:54;;;;;;;0.50;0.50;;;8.50;99.90;;;;;;5421513;23;21307;-86
2023/11/12 12:32:23;;;;;;;0.50;0.50;;;8.30;99.90;;;;;;5048770;23;20239;-87
2023/11/12 12:34:56;;;;;;;0.50;0.50;;;8.30;99.90;;;;;;5037037;23;20579;-88
2023/11/12 12:37:29;;;;;;;0.65;0.65;;;8.40;99.90;;;;;;4947986;28;20268;-88
2023/11/12 12:40:03;;;;;;;0.80;0.80;;;8.30;99.90;;;;;;4940145;29;20393;-86
2023/11/12 12:42:32;;;;;;;0.50;0.50;;;8.30;99.90;;;;;;4948958;29;20215;-88
2023/11/12 12:45:10;;;;;;;0.65;0.65;;;8.50;99.90;;;;;;4940051;29;20204;-88
2023/11/12 12:47:42;;;;;;;0.82;0.82;;;8.50;99.90;;;;;;4951570;28;20271;-87
2023/11/12 12:50:32;;;;;;;0.40;0.40;;;8.50;99.90;;;;;;4952361;28;20272;-90
2023/11/12 12:53:27;;;;;;;0.40;0.40;;;8.40;99.90;;;;;;4943014;28;20220;-87
2023/11/12 12:55:55;;;;;;;0.50;0.50;;;8.20;99.90;;;;;;4946169;28;20512;-86
2023/11/12 12:58:40;;;;;;;0.60;0.60;;;8.10;99.90;;;;;;5107544;23;20240;-88
2023/11/12 13:01:10;;;;;;;1.40;1.38;;;8.20;99.90;;;;;;4933784;28;20185;-88
2023/11/12 13:03:41;;;;;;;0.50;0.50;;;8.20;99.90;;;;;;4946301;29;20208;-88
2023/11/12 13:06:10;;;;;;;1.52;1.50;;;8.10;99.90;;;;;;4934710;29;20443;-87
2023/11/12 13:08:39;;;;;;;0.60;0.60;;;8.10;99.90;;;;;;4926239;29;20212;-88